BAW291 EGLL-KIAD
Flight info
| Callsign | BAW291 |
|---|---|
| Flight time | N/A |
| Altitude | 38000 |
| Route | EGLL/27L N0477F360 CPT3G CPT DCT DIDZA L9 OKSAW DCT BIBPE DCT BUCGO DCT FELCA DCT OFSOX DCT SLANY DCT MALOT/M083F380 DCT 53N020W 53N030W 52N040W 50N050W DCT ELSIR/N0490F380 DCT ALLEX/N0488F400 DCT KAYCC DCT KYLOH DCT BAF HYPER9 KIAD/01R |
| Aircraft | B772/H-V/N |
Departure
| Time | 2026-05-04 09:03 |
|---|---|
| Airport | London Heathrow Airport (EGLL) |
Arrival
| Time | N/A |
|---|---|
| Airport | Washington Dulles International Airport (KIAD) |
| Time | Latitude | Longitude | Altitude | Speed | Heading |
|---|---|---|---|---|---|
| 2026-05-04 08:33 | 51.47316 | -0.47721 | 90 ft | 0 kts | 90° |
| 2026-05-04 08:46 | 51.47316 | -0.47753 | 92 ft | 4 kts | 90° |
| 2026-05-04 08:47 | 51.47316 | -0.47796 | 90 ft | 4 kts | 90° |
| 2026-05-04 08:47 | 51.47316 | -0.47830 | 89 ft | 4 kts | 103° |
| 2026-05-04 08:47 | 51.47327 | -0.47864 | 91 ft | 4 kts | 150° |
| 2026-05-04 08:47 | 51.47350 | -0.47872 | 90 ft | 4 kts | 180° |
| 2026-05-04 08:48 | 51.47370 | -0.47872 | 91 ft | 0 kts | 180° |
| 2026-05-04 08:53 | 51.47369 | -0.47872 | 91 ft | 2 kts | 180° |
| 2026-05-04 08:54 | 51.46808 | -0.47866 | 94 ft | 10 kts | 180° |
| 2026-05-04 08:55 | 51.46765 | -0.47865 | 93 ft | 2 kts | 180° |
| 2026-05-04 08:55 | 51.46731 | -0.47865 | 94 ft | 8 kts | 180° |
| 2026-05-04 08:55 | 51.46677 | -0.47859 | 94 ft | 1 kts | 162° |
| 2026-05-04 08:55 | 51.46662 | -0.47831 | 95 ft | 6 kts | 116° |
| 2026-05-04 08:57 | 51.46657 | -0.46841 | 94 ft | 13 kts | 90° |
| 2026-05-04 09:01 | 51.46669 | -0.44258 | 90 ft | 18 kts | 89° |
| 2026-05-04 09:01 | 51.46668 | -0.44051 | 90 ft | 20 kts | 90° |
| 2026-05-04 09:01 | 51.46668 | -0.43892 | 91 ft | 13 kts | 90° |
| 2026-05-04 09:01 | 51.46668 | -0.43748 | 90 ft | 12 kts | 89° |
| 2026-05-04 09:02 | 51.46658 | -0.43635 | 95 ft | 6 kts | 129° |
| 2026-05-04 09:02 | 51.46615 | -0.43609 | 93 ft | 9 kts | 170° |
| 2026-05-04 09:02 | 51.46547 | -0.43603 | 91 ft | 8 kts | 180° |
| 2026-05-04 09:02 | 51.46501 | -0.43641 | 91 ft | 7 kts | 244° |
| 2026-05-04 09:03 | 51.46494 | -0.43768 | 90 ft | 23 kts | 268° |
| 2026-05-04 09:03 | 51.46489 | -0.44409 | 92 ft | 100 kts | 271° |
| 2026-05-04 09:03 | 51.46486 | -0.45959 | 98 ft | 175 kts | 270° |
| 2026-05-04 09:03 | 51.46510 | -0.47948 | 962 ft | 175 kts | 270° |
| 2026-05-04 09:04 | 51.46510 | -0.49847 | 2266 ft | 174 kts | 267° |
| 2026-05-04 09:04 | 51.46486 | -0.51916 | 2818 ft | 200 kts | 267° |
| 2026-05-04 09:04 | 51.46453 | -0.54317 | 3158 ft | 226 kts | 268° |
| 2026-05-04 09:04 | 51.46434 | -0.56037 | 3669 ft | 228 kts | 268° |
| 2026-05-04 09:05 | 51.46407 | -0.58576 | 4451 ft | 233 kts | 268° |
| 2026-05-04 09:05 | 51.46372 | -0.61295 | 4852 ft | 252 kts | 266° |
| 2026-05-04 09:05 | 51.46118 | -0.64096 | 5462 ft | 255 kts | 256° |
| 2026-05-04 09:05 | 51.45710 | -0.66851 | 5969 ft | 257 kts | 258° |
| 2026-05-04 09:06 | 51.45458 | -0.69738 | 5988 ft | 266 kts | 266° |